createdAt,value
2022-12-19T00:00:45.355Z,-0.3
2022-12-19T00:01:46.148Z,-0.24
2022-12-19T00:02:49.621Z,-0.28
2022-12-19T00:03:47.408Z,-0.3
2022-12-19T00:04:47.653Z,-0.23
2022-12-19T00:05:48.582Z,-0.15
2022-12-19T00:06:49.730Z,-0.07
2022-12-19T00:07:49.910Z,-0.2
2022-12-19T00:08:50.095Z,-0.02
2022-12-19T00:09:50.004Z,0
2022-12-19T00:10:53.801Z,-0.03
2022-12-19T00:11:51.801Z,0.01
2022-12-19T00:12:52.893Z,0.01
2022-12-19T00:13:53.080Z,0.08
2022-12-19T00:14:53.271Z,0.12
2022-12-19T00:15:53.820Z,0.09
2022-12-19T00:16:54.605Z,0.12
2022-12-19T00:17:54.415Z,0.13
2022-12-19T00:18:55.823Z,0.15
2022-12-19T00:19:55.202Z,0.18
2022-12-19T00:20:55.537Z,0.29
2022-12-19T00:21:56.150Z,0.26
2022-12-19T00:22:57.027Z,0.24
2022-12-19T00:23:56.656Z,0.29
2022-12-19T00:24:58.000Z,0.24
2022-12-19T00:26:00.463Z,0.3
2022-12-19T00:27:00.846Z,0.31
2022-12-19T00:27:59.800Z,0.31
2022-12-19T00:29:02.645Z,0.3
2022-12-19T00:30:02.099Z,0.31
2022-12-19T00:31:02.520Z,0.2
2022-12-19T00:32:02.866Z,0.15
2022-12-19T00:33:03.605Z,0.2
2022-12-19T00:34:03.915Z,0.16
2022-12-19T00:35:07.324Z,0.16
2022-12-19T00:36:05.955Z,0.19
2022-12-19T00:37:07.230Z,0.19
2022-12-19T00:38:07.713Z,0.16
2022-12-19T00:39:13.958Z,0.2
2022-12-19T00:40:08.864Z,0.19
2022-12-19T00:41:09.193Z,0.11
2022-12-19T00:42:10.486Z,0.11
2022-12-19T00:43:10.354Z,0.01
2022-12-19T00:44:12.470Z,0.09
2022-12-19T00:45:11.651Z,-0.09
2022-12-19T00:46:12.244Z,0
2022-12-19T00:47:12.507Z,0
2022-12-19T00:48:16.238Z,-0.1
2022-12-19T00:49:12.772Z,-0.03
2022-12-19T00:50:13.493Z,-0.06
2022-12-19T00:51:14.686Z,0
2022-12-19T00:52:14.874Z,-0.05
2022-12-19T00:53:15.173Z,-0.06
2022-12-19T00:54:15.586Z,-0.05
2022-12-19T00:55:23.993Z,-0.02
2022-12-19T00:56:15.652Z,0.06
2022-12-19T00:57:16.655Z,0.09
2022-12-19T00:58:17.272Z,0.11
2022-12-19T00:59:27.116Z,0.18
2022-12-19T01:00:18.121Z,0.11
2022-12-19T01:01:19.722Z,0.2
2022-12-19T01:02:20.144Z,0.19
2022-12-19T01:03:20.698Z,0.23
2022-12-19T01:04:42.272Z,0.26
2022-12-19T01:05:21.889Z,0.33
2022-12-19T01:06:23.351Z,0.42
2022-12-19T01:07:23.206Z,0.44
2022-12-19T01:08:26.194Z,0.61
2022-12-19T01:09:25.043Z,0.59
2022-12-19T01:10:25.955Z,0.71
2022-12-19T01:11:25.859Z,0.85
2022-12-19T01:12:30.606Z,0.77
2022-12-19T01:13:27.013Z,0.95
2022-12-19T01:14:29.312Z,0.89
2022-12-19T01:15:28.797Z,1
2022-12-19T01:16:29.984Z,1
2022-12-19T01:17:30.230Z,1.1
2022-12-19T01:18:31.456Z,1.06
2022-12-19T01:19:31.671Z,1.22
2022-12-19T01:20:35.282Z,1.2
2022-12-19T01:21:32.301Z,1.22
2022-12-19T01:22:32.559Z,1.18
2022-12-19T01:23:33.362Z,1.2
2022-12-19T01:24:33.954Z,1.25
2022-12-19T01:25:37.317Z,1.3
2022-12-19T01:26:35.703Z,1.28
2022-12-19T01:27:36.287Z,1.3
2022-12-19T01:28:36.479Z,1.31
2022-12-19T01:29:53.147Z,1.34
2022-12-19T01:30:38.708Z,1.3
2022-12-19T01:31:37.587Z,1.32
2022-12-19T01:32:40.260Z,1.31
2022-12-19T01:33:40.124Z,1.3
2022-12-19T01:34:39.496Z,1.32
2022-12-19T01:35:39.830Z,1.24
2022-12-19T01:36:45.441Z,1.25
2022-12-19T01:37:41.485Z,1.14
2022-12-19T01:38:42.664Z,1.16
2022-12-19T01:39:46.351Z,1.13
2022-12-19T01:40:43.269Z,1
2022-12-19T01:41:44.306Z,0.89
2022-12-19T01:42:45.304Z,0.73
2022-12-19T01:43:46.466Z,0.77
2022-12-19T01:44:45.400Z,0.74
2022-12-19T01:45:51.394Z,0.55
2022-12-19T01:46:46.539Z,0.56
2022-12-19T01:47:49.491Z,0.63
2022-12-19T01:48:47.072Z,0.61
2022-12-19T01:49:47.982Z,0.51
2022-12-19T01:51:07.055Z,0.51
2022-12-19T01:51:49.350Z,0.58
2022-12-19T01:52:49.257Z,0.47
2022-12-19T01:53:54.625Z,0.55
2022-12-19T01:54:50.237Z,0.51
2022-12-19T01:55:50.098Z,0.51
2022-12-19T01:56:50.979Z,0.45
2022-12-19T01:57:51.301Z,0.56
2022-12-19T01:59:07.036Z,0.44
2022-12-19T01:59:52.007Z,0.26
2022-12-19T02:00:51.834Z,0.3
2022-12-19T02:01:57.872Z,0.27
2022-12-19T02:02:53.828Z,0.23
2022-12-19T02:03:53.556Z,0.13
2022-12-19T02:04:54.594Z,0.13
2022-12-19T02:05:55.516Z,0.08
2022-12-19T02:06:56.006Z,-0.02
2022-12-19T02:07:56.854Z,-0.1
2022-12-19T02:08:57.349Z,-0.03
2022-12-19T02:10:03.051Z,-0.09
2022-12-19T02:10:57.684Z,-0.18
2022-12-19T02:11:57.920Z,-0.2
2022-12-19T02:12:58.519Z,-0.26
2022-12-19T02:13:59.059Z,-0.28
2022-12-19T02:15:03.775Z,-0.36
2022-12-19T02:15:59.999Z,-0.45
2022-12-19T02:17:00.850Z,-0.45
2022-12-19T02:18:00.590Z,-0.64
2022-12-19T02:19:01.515Z,-0.69
2022-12-19T02:20:01.748Z,-0.66
2022-12-19T02:21:01.934Z,-0.66
2022-12-19T02:22:02.426Z,-0.72
2022-12-19T02:23:02.857Z,-0.82
2022-12-19T02:24:03.251Z,-0.82
2022-12-19T02:25:04.534Z,-0.96
2022-12-19T02:26:05.446Z,-0.94
2022-12-19T02:27:05.086Z,-0.94
2022-12-19T02:28:06.802Z,-0.93
2022-12-19T02:29:07.676Z,-0.97
2022-12-19T02:30:07.801Z,-1
2022-12-19T02:31:17.678Z,-1.12
2022-12-19T02:32:08.608Z,-1.04
2022-12-19T02:33:08.968Z,-1.07
2022-12-19T02:34:09.942Z,-1.11
2022-12-19T02:35:12.384Z,-1.14
2022-12-19T02:36:11.053Z,-1.12
2022-12-19T02:37:13.724Z,-1.12
2022-12-19T02:38:16.137Z,-1.14
2022-12-19T02:39:13.348Z,-1.12
2022-12-19T02:40:12.977Z,-1.07
2022-12-19T02:41:14.168Z,-1.19
2022-12-19T02:42:18.016Z,-1.09
2022-12-19T02:43:14.542Z,-1.15
2022-12-19T02:44:15.180Z,-1.07
2022-12-19T02:45:27.122Z,-1.03
2022-12-19T02:46:17.028Z,-0.97
2022-12-19T02:47:18.154Z,-0.93
2022-12-19T02:48:25.176Z,-0.72
2022-12-19T02:49:31.465Z,-0.7
2022-12-19T02:50:20.203Z,-0.75
2022-12-19T02:51:21.393Z,-0.7
2022-12-19T02:52:21.037Z,-0.8
2022-12-19T02:53:24.791Z,-0.93
2022-12-19T02:54:22.623Z,-0.96
2022-12-19T02:55:23.639Z,-0.97
2022-12-19T02:56:24.120Z,-1.06
2022-12-19T02:57:26.701Z,-1.03
2022-12-19T02:58:24.266Z,-1.06
2022-12-19T02:59:25.205Z,-1.07
2022-12-19T03:00:25.839Z,-1.04
2022-12-19T03:01:27.956Z,-1.14
2022-12-19T03:02:28.202Z,-1.22
2022-12-19T03:03:28.084Z,-1.15
2022-12-19T03:04:28.878Z,-1.17
2022-12-19T03:05:29.094Z,-1.18
2022-12-19T03:06:29.721Z,-1.18
2022-12-19T03:07:29.846Z,-1.12
2022-12-19T03:08:30.212Z,-1.09
2022-12-19T03:09:31.824Z,-1.15
2022-12-19T03:10:31.768Z,-1.06
2022-12-19T03:11:32.251Z,-0.99
2022-12-19T03:12:32.753Z,-0.97
2022-12-19T03:13:33.505Z,-0.97
2022-12-19T03:14:34.376Z,-0.97
2022-12-19T03:15:34.296Z,-0.97
2022-12-19T03:16:35.819Z,-0.93
2022-12-19T03:17:35.712Z,-0.93
2022-12-19T03:18:36.459Z,-0.87
2022-12-19T03:19:36.656Z,-0.91
2022-12-19T03:20:37.287Z,-0.85
2022-12-19T03:21:38.329Z,-0.87
2022-12-19T03:22:38.870Z,-0.99
2022-12-19T03:23:39.472Z,-0.96
2022-12-19T03:24:40.057Z,-0.87
2022-12-19T03:25:41.151Z,-0.91
2022-12-19T03:26:42.060Z,-0.96
2022-12-19T03:27:42.577Z,-0.91
2022-12-19T03:28:44.050Z,-0.85
2022-12-19T03:29:44.259Z,-0.78
2022-12-19T03:30:45.635Z,-0.77
2022-12-19T03:31:45.999Z,-0.84
2022-12-19T03:32:47.029Z,-0.84
2022-12-19T03:33:47.366Z,-0.78
2022-12-19T03:34:48.424Z,-0.75
2022-12-19T03:35:48.813Z,-0.69
2022-12-19T03:36:49.928Z,-0.7
2022-12-19T03:37:50.146Z,-0.77
2022-12-19T03:38:51.478Z,-0.64
2022-12-19T03:39:51.850Z,-0.63
2022-12-19T03:40:52.369Z,-0.6
2022-12-19T03:41:52.998Z,-0.69
2022-12-19T03:42:53.645Z,-0.63
2022-12-19T03:43:54.727Z,-0.62
2022-12-19T03:44:54.484Z,-0.64
2022-12-19T03:45:56.241Z,-0.51
2022-12-19T03:46:56.831Z,-0.45
2022-12-19T03:47:58.093Z,-0.36
2022-12-19T03:48:58.429Z,-0.24
2022-12-19T03:49:59.078Z,-0.26
2022-12-19T03:50:59.571Z,-0.27
2022-12-19T03:52:05.281Z,-0.2
2022-12-19T03:53:00.519Z,-0.15
2022-12-19T03:54:00.593Z,-0.07
2022-12-19T03:55:01.857Z,-0.02
2022-12-19T03:56:02.075Z,-0.06
2022-12-19T03:57:02.992Z,0.05
2022-12-19T03:58:03.195Z,0.08
2022-12-19T03:59:03.749Z,0.11
2022-12-19T04:00:04.667Z,0.11
2022-12-19T04:01:05.028Z,0.19
2022-12-19T04:02:05.784Z,0.16
2022-12-19T04:03:06.626Z,0.12
2022-12-19T04:04:07.203Z,0.23
2022-12-19T04:05:07.318Z,0.16
2022-12-19T04:06:07.807Z,0.12
2022-12-19T04:07:08.042Z,0.11
2022-12-19T04:08:08.527Z,0.11
2022-12-19T04:09:08.875Z,0.11
2022-12-19T04:10:09.201Z,0.16
2022-12-19T04:11:09.862Z,0.13
2022-12-19T04:12:10.403Z,0.15
2022-12-19T04:13:10.596Z,0.08
2022-12-19T04:14:11.106Z,0.06
2022-12-19T04:15:11.044Z,0.06
2022-12-19T04:16:12.596Z,0
2022-12-19T04:17:13.050Z,0.02
2022-12-19T04:18:13.856Z,-0.05
2022-12-19T04:19:13.595Z,0.08
2022-12-19T04:20:14.321Z,-0.03
2022-12-19T04:21:14.853Z,0.06
2022-12-19T04:22:15.168Z,-0.02
2022-12-19T04:23:16.132Z,0.06
2022-12-19T04:24:16.474Z,-0.02
2022-12-19T04:25:16.580Z,0.01
2022-12-19T04:26:17.225Z,0.02
2022-12-19T04:27:18.164Z,0.05
2022-12-19T04:28:18.371Z,0.06
2022-12-19T04:29:19.681Z,0.02
2022-12-19T04:30:19.894Z,0.09
2022-12-19T04:31:20.776Z,0.11
2022-12-19T04:32:21.132Z,0.15
2022-12-19T04:33:21.438Z,0.09
2022-12-19T04:34:22.523Z,0.2
2022-12-19T04:35:22.721Z,0.12
2022-12-19T04:36:23.912Z,0.16
2022-12-19T04:37:24.512Z,0.11
2022-12-19T04:38:24.135Z,0.18
2022-12-19T04:39:26.022Z,0.15
2022-12-19T04:40:26.540Z,0.16
2022-12-19T04:41:27.419Z,0.11
2022-12-19T04:42:28.054Z,0.13
2022-12-19T04:43:28.971Z,0.05
2022-12-19T04:44:29.189Z,0.06
2022-12-19T04:45:30.195Z,-0.03
2022-12-19T04:46:30.201Z,-0.09
2022-12-19T04:47:30.068Z,-0.03
2022-12-19T04:48:31.362Z,-0.13
2022-12-19T04:49:31.978Z,-0.12
2022-12-19T04:50:31.883Z,-0.13
2022-12-19T04:51:32.426Z,-0.15
2022-12-19T04:52:33.441Z,-0.28
2022-12-19T04:53:34.387Z,-0.17
2022-12-19T04:54:35.154Z,-0.2
2022-12-19T04:55:35.284Z,-0.15
2022-12-19T04:56:36.222Z,-0.27
2022-12-19T04:57:36.150Z,-0.23
2022-12-19T04:58:36.649Z,-0.24
2022-12-19T04:59:36.976Z,-0.17
2022-12-19T05:00:36.622Z,-0.15
2022-12-19T05:01:38.300Z,-0.12
2022-12-19T05:02:39.381Z,-0.03
2022-12-19T05:03:39.946Z,0.02
2022-12-19T05:04:40.464Z,0.06
2022-12-19T05:05:40.657Z,0.05
2022-12-19T05:06:41.955Z,0.11
2022-12-19T05:07:42.563Z,0.12
2022-12-19T05:08:42.782Z,0.26
2022-12-19T05:09:43.378Z,0.24
2022-12-19T05:10:44.944Z,0.31
2022-12-19T05:11:44.609Z,0.36
2022-12-19T05:12:45.820Z,0.47
2022-12-19T05:13:45.741Z,0.39
2022-12-19T05:14:46.515Z,0.45
2022-12-19T05:15:47.828Z,0.47
2022-12-19T05:16:47.483Z,0.4
2022-12-19T05:17:47.894Z,0.49
2022-12-19T05:18:48.203Z,0.55
2022-12-19T05:19:48.674Z,0.67
2022-12-19T05:20:49.615Z,0.66
2022-12-19T05:21:49.522Z,0.7
2022-12-19T05:22:50.299Z,0.84
2022-12-19T05:23:51.583Z,0.81
2022-12-19T05:24:51.908Z,0.88
2022-12-19T05:25:52.373Z,0.88
2022-12-19T05:26:52.998Z,0.84
2022-12-19T05:27:53.486Z,0.88
2022-12-19T05:28:53.677Z,0.95
2022-12-19T05:29:54.290Z,1.04
2022-12-19T05:30:58.208Z,1.03
2022-12-19T05:31:55.084Z,1.02
2022-12-19T05:32:55.297Z,1.06
2022-12-19T05:33:55.901Z,1.13
2022-12-19T05:34:56.220Z,1.13
2022-12-19T05:35:56.846Z,1.21
2022-12-19T05:36:57.502Z,1.21
2022-12-19T05:37:58.259Z,1.34
2022-12-19T05:38:58.892Z,1.3
2022-12-19T05:39:59.254Z,1.4
2022-12-19T05:40:59.892Z,1.39
2022-12-19T05:42:00.826Z,1.56
2022-12-19T05:43:01.789Z,1.52
2022-12-19T05:44:02.095Z,1.57
2022-12-19T05:45:03.112Z,1.63
2022-12-19T05:46:03.852Z,1.66
2022-12-19T05:47:04.261Z,1.67
2022-12-19T05:48:09.991Z,1.67
2022-12-19T05:49:05.570Z,1.67
2022-12-19T05:50:05.312Z,1.7
2022-12-19T05:51:06.543Z,1.79
2022-12-19T05:52:07.109Z,1.78
2022-12-19T05:53:07.750Z,1.79
2022-12-19T05:54:07.922Z,1.85
2022-12-19T05:55:08.252Z,1.81
2022-12-19T05:56:09.400Z,1.74
2022-12-19T05:57:10.500Z,1.78
2022-12-19T05:58:10.872Z,1.76
2022-12-19T05:59:12.083Z,1.76
2022-12-19T06:00:12.390Z,1.82
2022-12-19T06:01:13.296Z,1.79
2022-12-19T06:02:13.777Z,1.78
2022-12-19T06:03:14.427Z,1.71
2022-12-19T06:04:14.745Z,1.76
2022-12-19T06:05:14.747Z,1.81
2022-12-19T06:06:15.207Z,1.79
2022-12-19T06:07:21.529Z,1.76
2022-12-19T06:08:17.014Z,1.84
2022-12-19T06:09:17.255Z,1.75
2022-12-19T06:10:18.250Z,1.76
2022-12-19T06:11:18.492Z,1.79
2022-12-19T06:12:18.994Z,1.81
2022-12-19T06:13:25.377Z,1.71
2022-12-19T06:14:20.594Z,1.66
2022-12-19T06:15:21.656Z,1.75
2022-12-19T06:16:22.782Z,1.66
2022-12-19T06:17:23.154Z,1.7
2022-12-19T06:18:23.362Z,1.64
2022-12-19T06:19:24.834Z,1.53
2022-12-19T06:20:24.724Z,1.61
2022-12-19T06:21:25.634Z,1.58
2022-12-19T06:22:26.555Z,1.48
2022-12-19T06:23:27.579Z,1.4
2022-12-19T06:24:27.521Z,1.39
2022-12-19T06:25:28.297Z,1.39
2022-12-19T06:26:29.224Z,1.53
2022-12-19T06:27:30.147Z,1.53
2022-12-19T06:28:30.351Z,1.63
2022-12-19T06:29:31.250Z,1.52
2022-12-19T06:30:31.740Z,1.61
2022-12-19T06:31:32.667Z,1.63
2022-12-19T06:32:38.560Z,1.7
2022-12-19T06:33:33.212Z,1.79
2022-12-19T06:35:08.815Z,1.75
2022-12-19T06:35:34.195Z,1.81
2022-12-19T06:36:33.894Z,1.82
2022-12-19T06:37:39.736Z,1.76
2022-12-19T06:38:36.087Z,1.81
2022-12-19T06:39:36.999Z,1.82
2022-12-19T06:40:37.363Z,1.78
2022-12-19T06:41:38.603Z,1.85
2022-12-19T06:42:39.113Z,1.97
2022-12-19T06:43:39.041Z,1.92
2022-12-19T06:44:39.224Z,1.93
2022-12-19T06:45:40.748Z,1.97
2022-12-19T06:46:41.102Z,2.01
2022-12-19T06:47:41.494Z,1.98
2022-12-19T06:48:42.149Z,2.01
2022-12-19T06:49:43.242Z,2.05
2022-12-19T06:50:44.293Z,1.97
2022-12-19T06:51:45.244Z,2
2022-12-19T06:52:45.683Z,2.14
2022-12-19T06:53:46.241Z,2.12
2022-12-19T06:54:47.178Z,2.18
2022-12-19T06:55:47.256Z,2.12
2022-12-19T06:56:48.380Z,2.28
2022-12-19T06:57:48.572Z,2.22
2022-12-19T06:58:48.610Z,2.25
2022-12-19T06:59:49.096Z,2.3
2022-12-19T07:00:49.551Z,2.3
2022-12-19T07:01:50.752Z,2.28
2022-12-19T07:02:50.408Z,2.4
2022-12-19T07:03:50.788Z,2.34
2022-12-19T07:04:52.150Z,2.39
2022-12-19T07:05:52.492Z,2.39
2022-12-19T07:06:55.325Z,2.44
2022-12-19T07:07:53.538Z,2.41
2022-12-19T07:08:53.857Z,2.4
2022-12-19T07:09:54.489Z,2.54
2022-12-19T07:10:55.924Z,2.55
2022-12-19T07:11:56.320Z,2.59
2022-12-19T07:12:56.538Z,2.55
2022-12-19T07:13:56.731Z,2.62
2022-12-19T07:14:59.443Z,2.51
2022-12-19T07:15:57.910Z,2.59
2022-12-19T07:16:58.162Z,2.58
2022-12-19T07:17:58.795Z,2.62
2022-12-19T07:18:58.438Z,2.69
2022-12-19T07:19:59.901Z,2.76
2022-12-19T07:21:00.234Z,2.68
2022-12-19T07:22:00.471Z,2.65
2022-12-19T07:23:01.728Z,2.57
2022-12-19T07:24:01.801Z,2.68
2022-12-19T07:25:02.422Z,2.58
2022-12-19T07:26:02.749Z,2.55
2022-12-19T07:27:03.914Z,2.58
2022-12-19T07:28:04.410Z,2.58
2022-12-19T07:29:04.616Z,2.65
2022-12-19T07:30:05.437Z,2.55
2022-12-19T07:31:05.755Z,2.64
2022-12-19T07:32:07.077Z,2.68
2022-12-19T07:33:13.595Z,2.72
2022-12-19T07:34:08.564Z,2.69
2022-12-19T07:35:09.364Z,2.69
2022-12-19T07:36:10.178Z,2.65
2022-12-19T07:37:10.917Z,2.75
2022-12-19T07:38:11.950Z,2.69
2022-12-19T07:39:12.021Z,2.75
2022-12-19T07:40:12.959Z,2.73
2022-12-19T07:41:13.278Z,2.83
2022-12-19T07:42:14.223Z,2.85
2022-12-19T07:43:14.691Z,2.9
2022-12-19T07:44:15.799Z,3.03
2022-12-19T07:45:16.296Z,3.03
2022-12-19T07:46:17.140Z,3.06
2022-12-19T07:47:17.675Z,3.08
2022-12-19T07:48:17.632Z,3.03
2022-12-19T07:49:23.136Z,3.12
2022-12-19T07:50:18.787Z,3.19
2022-12-19T07:51:19.560Z,3.24
2022-12-19T07:52:19.709Z,3.29
2022-12-19T07:53:20.102Z,3.36
2022-12-19T07:54:21.414Z,3.3
2022-12-19T07:55:21.773Z,3.21
2022-12-19T07:56:22.411Z,3.4
2022-12-19T07:57:22.568Z,3.41
2022-12-19T07:58:23.524Z,3.24
2022-12-19T07:59:34.442Z,3.48
2022-12-19T08:00:24.509Z,3.41
2022-12-19T08:01:29.339Z,3.4
2022-12-19T08:02:27.200Z,3.4
2022-12-19T08:03:26.976Z,3.49
2022-12-19T08:04:27.307Z,3.45
2022-12-19T08:05:28.671Z,3.45
2022-12-19T08:06:29.011Z,3.48
2022-12-19T08:07:29.683Z,3.48
2022-12-19T08:08:30.569Z,3.49
2022-12-19T08:09:31.585Z,3.37
2022-12-19T08:10:31.810Z,3.45
2022-12-19T08:11:32.879Z,3.63
2022-12-19T08:12:33.376Z,3.48
2022-12-19T08:13:47.223Z,3.43
2022-12-19T08:14:34.611Z,3.41
2022-12-19T08:15:34.584Z,3.59
2022-12-19T08:17:19.617Z,3.49
2022-12-19T08:18:08.063Z,3.5
2022-12-19T08:19:08.995Z,3.56
2022-12-19T08:20:10.325Z,3.49
2022-12-19T08:21:10.695Z,3.63
2022-12-19T08:22:11.484Z,3.56
2022-12-19T08:23:11.706Z,3.67
2022-12-19T08:24:12.937Z,3.68
2022-12-19T08:25:13.287Z,3.71
2022-12-19T08:26:13.218Z,3.7
2022-12-19T08:27:13.628Z,3.66
2022-12-19T08:28:13.772Z,3.71
2022-12-19T08:29:14.732Z,3.85
2022-12-19T08:30:14.708Z,3.84
2022-12-19T08:31:16.159Z,3.91
2022-12-19T08:32:22.170Z,3.91
2022-12-19T08:33:17.081Z,4.03
2022-12-19T08:34:18.301Z,3.95
2022-12-19T08:35:17.961Z,4.04
2022-12-19T08:36:19.304Z,4.07
2022-12-19T08:37:19.950Z,4.06
2022-12-19T08:38:20.702Z,4.12
2022-12-19T08:39:20.938Z,4.12
2022-12-19T08:40:21.454Z,4.2
2022-12-19T08:41:22.051Z,4.2
2022-12-19T08:42:22.728Z,4.32
2022-12-19T08:43:22.893Z,4.3
2022-12-19T08:44:23.160Z,4.25
2022-12-19T08:45:23.706Z,4.25
2022-12-19T08:46:23.978Z,4.27
2022-12-19T08:47:25.060Z,4.36
2022-12-19T08:48:24.622Z,4.43
2022-12-19T08:49:25.579Z,4.49
2022-12-19T08:50:26.212Z,4.49
2022-12-19T08:51:26.559Z,4.52
2022-12-19T08:52:26.790Z,4.52
2022-12-19T08:53:32.683Z,4.5
2022-12-19T08:54:28.945Z,4.49
2022-12-19T08:55:30.004Z,4.53
2022-12-19T08:56:29.812Z,4.53
2022-12-19T08:57:29.314Z,4.42
2022-12-19T08:58:30.205Z,4.52
2022-12-19T08:59:38.390Z,4.49
2022-12-19T09:00:32.788Z,4.58
2022-12-19T09:01:32.064Z,4.5
2022-12-19T09:02:33.902Z,4.53
2022-12-19T09:05:59.211Z,4.48
2022-12-19T09:06:30.717Z,4.46
2022-12-19T09:07:31.318Z,4.38
2022-12-19T09:08:31.646Z,4.24
2022-12-19T09:09:32.602Z,4.24
2022-12-19T09:10:33.437Z,4.12
2022-12-19T09:11:47.548Z,4.07
2022-12-19T09:12:34.486Z,4.12
2022-12-19T09:13:34.718Z,4.06
2022-12-19T09:14:35.273Z,4.06
2022-12-19T09:15:37.449Z,3.92
2022-12-19T09:16:36.322Z,3.95
2022-12-19T09:17:38.695Z,3.85
2022-12-19T09:18:38.010Z,3.77
2022-12-19T09:19:38.815Z,3.73
2022-12-19T09:20:38.944Z,3.7
2022-12-19T09:21:39.567Z,3.71
2022-12-19T09:22:40.018Z,3.64
2022-12-19T09:23:40.243Z,3.73
2022-12-19T09:24:40.984Z,3.64
2022-12-19T09:25:41.632Z,3.71
2022-12-19T09:26:42.709Z,3.71
2022-12-19T09:28:37.246Z,3.84
2022-12-19T09:28:54.880Z,3.74
2022-12-19T09:29:55.109Z,3.86
2022-12-19T09:30:55.839Z,3.86
2022-12-19T09:32:01.888Z,3.92
2022-12-19T09:32:56.928Z,4.03
2022-12-19T09:33:57.434Z,4.02
2022-12-19T09:34:58.665Z,4.1
2022-12-19T09:36:02.551Z,4.18
2022-12-19T09:36:59.803Z,4.3
2022-12-19T09:38:05.842Z,4.34
2022-12-19T09:39:01.647Z,4.49
2022-12-19T09:40:05.257Z,4.5
2022-12-19T09:41:02.546Z,4.56
2022-12-19T09:42:03.098Z,4.7
2022-12-19T09:43:03.026Z,4.79
2022-12-19T09:44:07.196Z,4.86
2022-12-19T09:45:06.088Z,4.86
2022-12-19T09:46:05.964Z,4.92
2022-12-19T09:47:06.377Z,5
2022-12-19T09:48:09.222Z,5.08
2022-12-19T09:49:08.657Z,5.07
2022-12-19T09:50:08.876Z,5.12
2022-12-19T09:51:16.578Z,5.22
2022-12-19T09:52:09.457Z,5.28
2022-12-19T09:53:09.573Z,5.31
2022-12-19T09:54:10.404Z,5.37
2022-12-19T09:55:14.449Z,5.36
2022-12-19T09:56:11.345Z,5.36
2022-12-19T09:57:11.559Z,5.44
2022-12-19T09:58:11.633Z,5.38
2022-12-19T09:59:12.615Z,5.47
2022-12-19T10:00:13.228Z,5.46
2022-12-19T10:01:14.027Z,5.61
2022-12-19T10:02:18.617Z,5.55
2022-12-19T10:03:15.310Z,5.64
2022-12-19T10:04:15.764Z,5.61
2022-12-19T10:07:33.119Z,5.69
2022-12-19T10:08:19.349Z,5.8
2022-12-19T10:12:55.905Z,6.22
2022-12-19T10:13:58.334Z,6.38
2022-12-19T10:14:58.685Z,6.36
2022-12-19T10:16:06.428Z,6.39
2022-12-19T10:17:29.134Z,6.39
2022-12-19T10:18:00.065Z,6.38
2022-12-19T10:19:03.022Z,6.36
2022-12-19T10:20:01.533Z,6.38
2022-12-19T10:21:02.714Z,6.38
2022-12-19T10:22:23.854Z,6.38
2022-12-19T10:23:04.132Z,6.35
2022-12-19T10:24:04.577Z,6.38
2022-12-19T10:25:14.438Z,6.35
2022-12-19T10:26:05.788Z,6.38
2022-12-19T10:27:06.372Z,6.38
2022-12-19T10:28:07.344Z,6.43
2022-12-19T10:29:11.095Z,6.36
2022-12-19T10:30:08.953Z,6.49
2022-12-19T10:31:23.002Z,6.49
2022-12-19T10:32:10.448Z,6.5
2022-12-19T10:33:20.396Z,6.53
2022-12-19T10:34:11.814Z,6.62
2022-12-19T10:35:11.864Z,6.6
2022-12-19T10:36:12.587Z,6.6
2022-12-19T10:37:49.062Z,6.74
2022-12-19T10:38:12.615Z,6.68
2022-12-19T10:39:13.447Z,6.74
2022-12-19T10:40:28.997Z,6.87
2022-12-19T10:41:13.896Z,6.89
2022-12-19T10:42:14.171Z,6.9
2022-12-19T10:43:33.912Z,7
2022-12-19T10:44:27.446Z,7.23
2022-12-19T10:45:28.181Z,7.28
2022-12-19T10:46:29.406Z,7.47
2022-12-19T10:47:29.724Z,7.59
2022-12-19T10:48:36.495Z,7.66
2022-12-19T10:49:31.706Z,7.78
2022-12-19T10:50:31.678Z,7.69
2022-12-19T10:51:32.494Z,7.64
2022-12-19T10:52:34.123Z,7.69
2022-12-19T10:53:33.523Z,7.81
2022-12-19T10:54:39.996Z,7.74
2022-12-19T10:55:35.069Z,7.84
2022-12-19T10:56:42.942Z,7.66
2022-12-19T10:57:37.201Z,7.69
2022-12-19T10:58:36.648Z,7.67
2022-12-19T10:59:37.182Z,7.67
2022-12-19T11:00:38.971Z,7.67
2022-12-19T11:01:38.858Z,7.58
2022-12-19T11:02:39.816Z,7.56
2022-12-19T11:03:40.528Z,7.5
2022-12-19T11:04:40.784Z,7.51
2022-12-19T11:05:42.563Z,7.41
2022-12-19T11:06:42.247Z,7.44
2022-12-19T11:07:43.211Z,7.47
2022-12-19T11:08:44.154Z,7.53
2022-12-19T11:10:26.460Z,7.51
2022-12-19T11:32:29.570Z,7.29
2022-12-19T11:33:29.903Z,7.1
2022-12-19T11:34:30.859Z,7.01
2022-12-19T11:35:43.118Z,6.85
2022-12-19T11:36:32.779Z,6.87
2022-12-19T11:37:34.010Z,6.82
2022-12-19T11:38:34.284Z,6.8
2022-12-19T11:39:34.498Z,6.87
2022-12-19T11:40:35.208Z,6.86
2022-12-19T11:41:35.450Z,6.93
2022-12-19T11:42:36.659Z,6.93
2022-12-19T11:43:54.293Z,7
2022-12-19T11:44:55.247Z,6.96
2022-12-19T11:45:55.916Z,7.03
2022-12-19T11:46:58.422Z,6.93
2022-12-19T11:47:57.085Z,6.97
2022-12-19T11:48:57.541Z,7.03
2022-12-19T11:49:58.055Z,7.04
2022-12-19T11:50:59.788Z,6.95
2022-12-19T11:51:59.358Z,6.95
2022-12-19T11:53:19.539Z,6.89
2022-12-19T11:54:09.613Z,6.9
2022-12-19T11:55:11.127Z,6.9
2022-12-19T11:56:21.677Z,6.72
2022-12-19T11:57:11.954Z,6.74
2022-12-19T11:58:12.218Z,6.7
2022-12-19T11:59:13.137Z,6.68
2022-12-19T12:00:13.933Z,6.77
2022-12-19T12:01:14.186Z,6.77
2022-12-19T12:02:14.745Z,6.87
2022-12-19T12:03:14.979Z,6.89
2022-12-19T12:04:15.730Z,6.87
2022-12-19T12:05:17.984Z,6.92
2022-12-19T12:06:15.854Z,6.85
2022-12-19T12:35:25.653Z,7.28
2022-12-19T12:38:28.926Z,7.4
2022-12-19T12:39:39.561Z,7.31
2022-12-19T12:40:33.222Z,7.37
2022-12-19T12:41:34.459Z,7.43
2022-12-19T12:42:34.877Z,7.23
2022-12-19T12:43:35.605Z,7.25
2022-12-19T12:44:46.392Z,7.14
2022-12-19T12:45:37.593Z,7.23
2022-12-19T12:46:37.708Z,7.23
2022-12-19T12:47:37.754Z,7.18
2022-12-19T12:48:38.689Z,7.23
2022-12-19T12:49:39.217Z,7.25
2022-12-19T12:50:39.616Z,7.28
2022-12-19T12:51:40.301Z,7.15
2022-12-19T12:52:40.844Z,7.14
2022-12-19T12:53:41.108Z,7.15
2022-12-19T12:54:41.155Z,7.22
2022-12-19T12:55:41.541Z,7.21
2022-12-19T12:56:42.803Z,7.21
2022-12-19T12:57:42.815Z,7.19
2022-12-19T12:58:43.896Z,7.15
2022-12-19T12:59:43.790Z,7.21
2022-12-19T13:00:44.722Z,7.26
2022-12-19T13:01:46.698Z,7.23
2022-12-19T13:02:46.723Z,7.18
2022-12-19T13:03:46.488Z,7.29
2022-12-19T13:04:53.883Z,7.23
2022-12-19T13:05:48.184Z,7.23
2022-12-19T13:06:47.783Z,7.14
2022-12-19T13:07:48.432Z,7.11
2022-12-19T13:08:49.729Z,7.05
2022-12-19T13:09:50.282Z,7.04
2022-12-19T13:10:51.101Z,7
2022-12-19T13:11:52.138Z,7.01
2022-12-19T13:12:53.082Z,7.03
2022-12-19T13:13:53.844Z,6.96
2022-12-19T13:14:54.054Z,7.07
2022-12-19T13:15:54.589Z,6.92
2022-12-19T13:16:54.852Z,7.04
2022-12-19T13:17:55.705Z,6.97
2022-12-19T13:18:55.904Z,6.95
2022-12-19T13:19:56.165Z,7.05
2022-12-19T13:20:57.093Z,7.01
2022-12-19T13:21:57.310Z,7.01
2022-12-19T13:22:58.278Z,7.13
2022-12-19T13:23:58.437Z,7.18
2022-12-19T13:24:59.408Z,7.15
2022-12-19T13:26:00.126Z,7.07
2022-12-19T13:27:01.017Z,7.08
2022-12-19T13:28:01.297Z,7.04
2022-12-19T13:29:02.525Z,7.01
2022-12-19T13:30:03.333Z,6.97
2022-12-19T13:31:27.765Z,6.96
2022-12-19T13:32:04.646Z,6.93
2022-12-19T13:33:04.665Z,6.87
2022-12-19T13:34:05.504Z,6.89
2022-12-19T13:40:13.515Z,6.85
2022-12-19T13:41:08.749Z,6.78
2022-12-19T13:42:09.122Z,6.93
2022-12-19T13:43:16.836Z,6.96
2022-12-19T13:44:10.363Z,6.86
2022-12-19T13:45:10.660Z,6.95
2022-12-19T13:46:11.856Z,6.97
2022-12-19T13:47:12.498Z,6.97
2022-12-19T13:48:14.055Z,6.95
2022-12-19T13:49:12.729Z,6.93
2022-12-19T13:50:14.041Z,6.97
2022-12-19T13:51:14.685Z,6.97
2022-12-19T13:52:15.243Z,6.97
2022-12-19T13:53:15.910Z,7
2022-12-19T13:54:17.120Z,7.01
2022-12-19T13:55:17.701Z,7.03
2022-12-19T13:56:18.385Z,7.1
2022-12-19T13:57:18.957Z,7.04
2022-12-19T13:58:19.519Z,7
2022-12-19T13:59:19.684Z,7
2022-12-19T14:00:20.332Z,7.03
2022-12-19T14:01:26.652Z,6.89
2022-12-19T14:02:22.793Z,6.95
2022-12-19T14:03:23.321Z,6.87
2022-12-19T14:04:23.424Z,6.89
2022-12-19T14:06:19.154Z,6.85
2022-12-19T14:06:36.559Z,6.92
2022-12-19T14:07:42.183Z,6.86
2022-12-19T14:08:37.588Z,6.85
2022-12-19T14:14:06.724Z,6.7
2022-12-19T14:14:35.287Z,6.59
2022-12-19T14:15:36.038Z,6.57
2022-12-19T14:16:51.808Z,6.65
2022-12-19T14:17:51.076Z,6.62
2022-12-19T14:18:53.827Z,6.74
2022-12-19T14:22:02.885Z,6.75
2022-12-19T14:22:37.158Z,6.74
2022-12-19T14:23:49.232Z,6.72
2022-12-19T14:24:38.505Z,6.74
2022-12-19T14:28:32.313Z,6.72
2022-12-19T14:28:42.370Z,6.72
2022-12-19T14:30:39.079Z,6.85
2022-12-19T14:32:23.958Z,6.7
2022-12-19T14:36:25.497Z,6.7
2022-12-19T14:39:01.327Z,6.71
2022-12-19T14:39:41.890Z,6.67
2022-12-19T14:41:14.553Z,6.59
2022-12-19T14:41:42.771Z,6.6
2022-12-19T14:57:04.634Z,6.07
2022-12-19T14:59:01.529Z,5.94
2022-12-19T14:59:50.102Z,5.9
2022-12-19T15:01:23.271Z,5.88